createdAt,value
2019-03-15T00:00:47.829Z,54.70
2019-03-15T00:03:17.227Z,54.40
2019-03-15T00:05:46.607Z,54.10
2019-03-15T00:08:16.027Z,54.20
2019-03-15T00:10:45.489Z,54.00
2019-03-15T00:13:14.943Z,54.10
2019-03-15T00:15:44.419Z,54.00
2019-03-15T00:18:13.992Z,54.20
2019-03-15T00:20:43.420Z,54.00
2019-03-15T00:23:12.980Z,53.80
2019-03-15T00:25:42.486Z,54.10
2019-03-15T00:28:11.943Z,54.10
2019-03-15T00:30:41.335Z,54.30
2019-03-15T00:33:10.831Z,54.70
2019-03-15T00:35:40.227Z,54.50
2019-03-15T00:38:09.628Z,54.20
2019-03-15T00:40:38.999Z,54.40
2019-03-15T00:43:08.395Z,54.10
2019-03-15T00:45:37.855Z,54.30
2019-03-15T00:48:07.276Z,54.20
2019-03-15T00:50:36.786Z,54.40
2019-03-15T00:53:06.177Z,54.10
2019-03-15T00:55:35.579Z,54.40
2019-03-15T00:58:05.044Z,54.20
2019-03-15T01:00:34.443Z,54.90
2019-03-15T01:03:03.823Z,55.10
2019-03-15T01:05:47.009Z,54.90
2019-03-15T01:08:16.427Z,54.80
2019-03-15T01:10:45.897Z,55.10
2019-03-15T01:13:16.613Z,54.90
2019-03-15T01:15:45.990Z,55.40
2019-03-15T01:18:15.406Z,55.00
2019-03-15T01:20:45.830Z,54.70
2019-03-15T01:23:15.377Z,54.90
2019-03-15T01:25:44.746Z,54.50
2019-03-15T01:28:14.123Z,55.30
2019-03-15T01:30:43.568Z,54.90
2019-03-15T01:33:13.020Z,54.50
2019-03-15T01:35:42.426Z,54.70
2019-03-15T01:38:11.822Z,55.00
2019-03-15T01:40:41.229Z,55.00
2019-03-15T01:43:10.637Z,54.80
2019-03-15T01:45:41.103Z,55.00
2019-03-15T01:48:10.578Z,55.00
2019-03-15T01:50:39.985Z,55.30
2019-03-15T01:53:09.475Z,55.50
2019-03-15T01:55:38.874Z,55.30
2019-03-15T01:58:08.279Z,55.00
2019-03-15T02:00:38.615Z,55.30
2019-03-15T02:03:09.308Z,55.30
2019-03-15T02:05:38.720Z,56.00
2019-03-15T02:08:08.127Z,56.30
2019-03-15T02:10:37.705Z,55.80
2019-03-15T02:13:07.233Z,57.00
2019-03-15T02:15:36.689Z,55.80
2019-03-15T02:18:06.223Z,55.40
2019-03-15T02:20:35.656Z,55.60
2019-03-15T02:23:05.139Z,55.70
2019-03-15T02:25:34.526Z,55.50
2019-03-15T02:28:04.099Z,56.60
2019-03-15T02:30:33.799Z,54.90
2019-03-15T02:33:03.373Z,55.50
2019-03-15T02:35:32.845Z,55.80
2019-03-15T02:38:02.297Z,55.50
2019-03-15T02:40:31.723Z,55.50
2019-03-15T02:43:01.429Z,55.20
2019-03-15T02:45:30.873Z,55.30
2019-03-15T02:48:00.274Z,55.30
2019-03-15T02:50:29.665Z,55.40
2019-03-15T02:52:59.123Z,55.60
2019-03-15T02:55:28.584Z,55.80
2019-03-15T02:57:58.018Z,55.70
2019-03-15T03:00:27.454Z,56.00
2019-03-15T03:02:56.905Z,56.00
2019-03-15T03:05:40.423Z,56.40
2019-03-15T03:08:09.894Z,56.90
2019-03-15T03:10:39.344Z,56.80
2019-03-15T03:13:10.732Z,57.40
2019-03-15T03:15:40.498Z,56.90
2019-03-15T03:18:10.148Z,57.20
2019-03-15T03:20:39.633Z,57.50
2019-03-15T03:23:09.038Z,57.70
2019-03-15T03:25:38.421Z,57.80
2019-03-15T03:28:07.832Z,57.90
2019-03-15T03:30:37.309Z,58.00
2019-03-15T03:33:06.718Z,58.00
2019-03-15T03:35:36.200Z,58.10
2019-03-15T03:38:05.704Z,58.10
2019-03-15T03:40:35.341Z,58.00
2019-03-15T03:43:07.159Z,58.00
2019-03-15T03:45:37.399Z,58.30
2019-03-15T03:48:06.837Z,58.20
2019-03-15T03:50:36.231Z,58.50
2019-03-15T03:53:06.354Z,58.60
2019-03-15T03:55:35.799Z,59.00
2019-03-15T03:58:05.211Z,58.50
2019-03-15T04:00:34.735Z,58.80
2019-03-15T04:03:04.135Z,59.10
2019-03-15T04:05:34.116Z,59.10
2019-03-15T04:08:03.634Z,59.20
2019-03-15T04:10:33.106Z,59.50
2019-03-15T04:13:02.504Z,58.70
2019-03-15T04:15:31.891Z,59.00
2019-03-15T04:18:01.375Z,58.90
2019-03-15T04:20:30.948Z,59.10
2019-03-15T04:23:00.436Z,59.30
2019-03-15T04:25:29.896Z,59.40
2019-03-15T04:27:59.333Z,59.40
2019-03-15T04:30:28.743Z,59.70
2019-03-15T04:32:59.456Z,59.80
2019-03-15T04:35:28.939Z,59.70
2019-03-15T04:37:58.317Z,60.00
2019-03-15T04:40:27.723Z,59.10
2019-03-15T04:42:57.102Z,59.40
2019-03-15T04:45:26.505Z,59.50
2019-03-15T04:47:55.910Z,59.50
2019-03-15T04:50:25.386Z,59.80
2019-03-15T04:53:14.176Z,59.90
2019-03-15T04:55:43.628Z,59.80
2019-03-15T04:58:13.207Z,59.40
2019-03-15T05:00:42.715Z,60.40
2019-03-15T05:03:12.144Z,59.60
2019-03-15T05:05:41.614Z,58.80
2019-03-15T05:08:11.015Z,59.30
2019-03-15T05:10:40.438Z,59.60
2019-03-15T05:13:09.899Z,59.40
2019-03-15T05:15:39.335Z,59.40
2019-03-15T05:18:08.722Z,59.70
2019-03-15T05:20:39.253Z,60.00
2019-03-15T05:23:08.875Z,59.40
2019-03-15T05:25:38.272Z,59.70
2019-03-15T05:28:07.683Z,60.30
2019-03-15T05:30:37.100Z,58.90
2019-03-15T05:33:06.538Z,59.10
2019-03-15T05:35:35.934Z,59.50
2019-03-15T05:38:05.395Z,59.40
2019-03-15T05:40:34.794Z,59.20
2019-03-15T05:43:04.201Z,59.20
2019-03-15T05:45:33.654Z,59.40
2019-03-15T05:48:03.031Z,59.50
2019-03-15T05:50:32.427Z,59.70
2019-03-15T05:53:02.047Z,60.20
2019-03-15T05:55:31.523Z,60.10
2019-03-15T05:58:00.902Z,59.30
2019-03-15T06:00:30.307Z,59.20
2019-03-15T06:03:01.411Z,59.20
2019-03-15T06:05:31.603Z,58.80
2019-03-15T06:08:01.477Z,58.60
2019-03-15T06:10:30.995Z,59.10
2019-03-15T06:13:00.455Z,59.40
2019-03-15T06:15:29.864Z,59.80
2019-03-15T06:17:59.303Z,60.10
2019-03-15T06:20:28.705Z,59.80
2019-03-15T06:22:58.171Z,60.10
2019-03-15T06:25:27.553Z,60.10
2019-03-15T06:27:56.942Z,60.20
2019-03-15T06:30:26.318Z,60.20
2019-03-15T06:32:55.724Z,60.50
2019-03-15T06:35:26.458Z,60.10
2019-03-15T06:37:55.889Z,60.20
2019-03-15T06:40:25.506Z,61.10
2019-03-15T06:42:54.892Z,60.10
2019-03-15T06:45:24.324Z,59.20
2019-03-15T06:47:53.779Z,59.70
2019-03-15T06:50:23.184Z,59.60
2019-03-15T06:52:52.624Z,60.00
2019-03-15T06:55:22.027Z,60.30
2019-03-15T06:57:51.433Z,60.10
2019-03-15T07:00:20.836Z,60.20
2019-03-15T07:03:04.115Z,59.80
2019-03-15T07:05:34.551Z,59.80
2019-03-15T07:08:04.090Z,59.90
2019-03-15T07:10:33.531Z,60.10
2019-03-15T07:13:03.004Z,60.20
2019-03-15T07:15:32.419Z,60.00
2019-03-15T07:18:01.811Z,59.80
2019-03-15T07:20:31.206Z,59.90
2019-03-15T07:23:00.598Z,60.20
2019-03-15T07:25:29.989Z,60.30
2019-03-15T07:27:59.629Z,59.90
2019-03-15T07:30:29.013Z,59.70
2019-03-15T07:32:59.220Z,59.70
2019-03-15T07:35:28.682Z,59.80
2019-03-15T07:37:58.222Z,60.00
2019-03-15T07:40:27.626Z,59.80
2019-03-15T07:42:59.870Z,59.90
2019-03-15T07:45:28.108Z,60.10
2019-03-15T07:47:57.487Z,59.80
2019-03-15T07:50:40.430Z,59.80
2019-03-15T07:53:09.844Z,60.30
2019-03-15T07:55:39.256Z,59.50
2019-03-15T07:58:08.660Z,59.80
2019-03-15T08:00:38.115Z,59.60
2019-03-15T08:03:07.620Z,59.80
2019-03-15T08:05:37.026Z,59.80
2019-03-15T08:08:07.654Z,59.80
2019-03-15T08:10:37.060Z,59.40
2019-03-15T08:13:06.467Z,59.50
2019-03-15T08:15:35.923Z,59.70
2019-03-15T08:18:05.427Z,59.30
2019-03-15T08:20:34.943Z,59.50
2019-03-15T08:23:04.436Z,59.50
2019-03-15T08:26:19.042Z,59.80
2019-03-15T08:28:48.430Z,60.00
2019-03-15T08:31:54.913Z,59.80
2019-03-15T08:34:24.331Z,59.80
2019-03-15T08:36:53.831Z,60.10
2019-03-15T08:39:23.295Z,59.90
2019-03-15T08:41:52.772Z,60.60
2019-03-15T08:44:22.243Z,60.70
2019-03-15T08:46:51.628Z,60.10
2019-03-15T08:49:22.099Z,60.00
2019-03-15T08:52:03.353Z,60.00
2019-03-15T08:55:05.043Z,59.50
2019-03-15T08:57:31.991Z,59.50
2019-03-15T09:00:03.291Z,59.20
2019-03-15T09:02:33.065Z,59.00
2019-03-15T09:05:02.487Z,59.40
2019-03-15T09:07:32.687Z,58.90
2019-03-15T09:10:03.661Z,59.00
2019-03-15T09:12:33.477Z,59.10
2019-03-15T09:15:03.023Z,58.90
2019-03-15T09:17:32.419Z,58.70
2019-03-15T09:20:01.815Z,58.40
2019-03-15T09:22:31.205Z,58.90
2019-03-15T09:25:01.747Z,59.00
2019-03-15T09:27:31.116Z,59.20
2019-03-15T09:30:00.522Z,58.90
2019-03-15T09:32:29.907Z,59.40
2019-03-15T09:34:59.304Z,59.50
2019-03-15T09:37:28.716Z,59.70
2019-03-15T09:39:59.143Z,59.30
2019-03-15T09:42:28.580Z,59.80
2019-03-15T09:44:58.055Z,60.20
2019-03-15T09:47:27.467Z,60.30
2019-03-15T09:49:56.843Z,60.40
2019-03-15T09:52:26.238Z,60.30
2019-03-15T09:54:55.635Z,59.90
2019-03-15T09:57:25.088Z,59.60
2019-03-15T09:59:54.483Z,59.80
2019-03-15T10:02:30.383Z,59.70
2019-03-15T10:04:54.973Z,59.10
2019-03-15T10:07:37.447Z,59.40
2019-03-15T10:09:56.018Z,59.30
2019-03-15T10:12:25.409Z,59.30
2019-03-15T10:14:54.802Z,59.00
2019-03-15T10:17:24.195Z,58.80
2019-03-15T10:19:53.622Z,58.80
2019-03-15T10:22:23.062Z,58.50
2019-03-15T10:24:52.462Z,58.50
2019-03-15T10:27:21.912Z,58.80
2019-03-15T10:29:51.355Z,58.60
2019-03-15T10:32:20.840Z,58.50
2019-03-15T10:34:50.218Z,58.40
2019-03-15T10:37:19.786Z,58.60
2019-03-15T10:39:49.171Z,58.60
2019-03-15T10:42:18.559Z,58.30
2019-03-15T10:44:48.126Z,58.30
2019-03-15T10:47:17.669Z,58.30
2019-03-15T10:49:47.071Z,58.30
2019-03-15T10:52:16.464Z,58.40
2019-03-15T10:55:09.914Z,57.90
2019-03-15T10:57:39.373Z,58.00
2019-03-15T11:00:16.742Z,57.80
2019-03-15T11:02:46.207Z,57.70
2019-03-15T11:05:15.670Z,58.00
2019-03-15T11:07:45.132Z,57.80
2019-03-15T11:10:38.546Z,57.60
2019-03-15T11:13:07.950Z,57.60
2019-03-15T11:15:37.348Z,57.70
2019-03-15T11:18:06.818Z,57.70
2019-03-15T11:20:36.298Z,57.50
2019-03-15T11:23:05.720Z,57.80
2019-03-15T11:25:35.139Z,57.90
2019-03-15T11:28:04.574Z,57.70
2019-03-15T11:30:33.942Z,57.50
2019-03-15T11:33:03.338Z,58.00
2019-03-15T11:35:32.789Z,57.90
2019-03-15T11:38:02.195Z,57.80
2019-03-15T11:40:31.694Z,57.80
2019-03-15T11:43:01.087Z,57.50
2019-03-15T11:45:30.478Z,57.70
2019-03-15T11:48:04.352Z,57.70
2019-03-15T11:50:31.038Z,58.10
2019-03-15T11:53:00.411Z,57.90
2019-03-15T11:55:29.810Z,58.10
2019-03-15T11:57:59.275Z,57.80
2019-03-15T12:00:28.789Z,57.70
2019-03-15T12:02:58.252Z,57.90
2019-03-15T12:05:27.703Z,57.80
2019-03-15T12:07:57.564Z,57.50
2019-03-15T12:10:26.967Z,57.90
2019-03-15T12:12:56.360Z,57.60
2019-03-15T12:15:25.806Z,57.70
2019-03-15T12:17:55.202Z,57.50
2019-03-15T12:20:38.152Z,57.70
2019-03-15T12:23:07.627Z,57.50
2019-03-15T12:25:37.111Z,57.60
2019-03-15T12:28:07.408Z,57.90
2019-03-15T12:30:45.594Z,58.20
2019-03-15T12:33:15.277Z,57.80
2019-03-15T12:35:46.404Z,57.80
2019-03-15T12:38:15.834Z,57.90
2019-03-15T12:40:45.212Z,57.50
2019-03-15T12:43:14.627Z,57.50
2019-03-15T12:45:43.991Z,57.50
2019-03-15T12:48:13.390Z,57.30
2019-03-15T12:50:42.773Z,57.30
2019-03-15T12:53:12.166Z,57.50
2019-03-15T12:55:41.554Z,57.60
2019-03-15T12:58:11.090Z,57.50
2019-03-15T13:00:40.470Z,57.40
2019-03-15T13:03:09.866Z,57.30
2019-03-15T13:05:39.351Z,57.70
2019-03-15T13:08:08.858Z,57.70
2019-03-15T13:10:38.255Z,57.70
2019-03-15T13:13:07.644Z,58.00
2019-03-15T13:15:37.154Z,58.10
2019-03-15T13:18:06.555Z,58.10
2019-03-15T13:20:36.126Z,58.30
2019-03-15T13:23:05.587Z,57.90
2019-03-15T13:25:34.970Z,58.00
2019-03-15T13:28:04.357Z,58.30
2019-03-15T13:30:33.743Z,58.20
2019-03-15T13:33:03.123Z,58.20
2019-03-15T13:35:32.514Z,58.50
2019-03-15T13:38:01.982Z,58.70
2019-03-15T13:40:31.385Z,58.70
2019-03-15T13:43:00.931Z,58.50
2019-03-15T13:45:30.332Z,58.40
2019-03-15T13:47:59.867Z,58.70
2019-03-15T13:50:29.255Z,58.30
2019-03-15T13:52:58.745Z,58.10
2019-03-15T13:55:28.145Z,57.90
2019-03-15T13:57:57.803Z,58.10
2019-03-15T14:00:27.280Z,58.00
2019-03-15T14:02:56.739Z,58.00
2019-03-15T14:05:26.134Z,58.30
2019-03-15T14:07:55.720Z,58.00
2019-03-15T14:10:25.162Z,58.10
2019-03-15T14:12:54.573Z,57.70
2019-03-15T14:15:24.049Z,57.80
2019-03-15T14:17:53.522Z,57.60
2019-03-15T14:20:22.988Z,57.30
2019-03-15T14:22:52.444Z,57.40
2019-03-15T14:25:26.553Z,57.30
2019-03-15T14:27:55.990Z,57.50
2019-03-15T14:30:25.493Z,57.10
2019-03-15T14:32:54.871Z,57.50
2019-03-15T14:35:25.337Z,57.50
2019-03-15T14:37:54.833Z,57.20
2019-03-15T14:40:24.513Z,57.50
2019-03-15T14:42:54.520Z,57.80
2019-03-15T14:45:24.214Z,58.00
2019-03-15T14:47:53.767Z,58.00
2019-03-15T14:50:23.176Z,58.00
2019-03-15T14:52:52.549Z,57.80
2019-03-15T14:55:22.099Z,57.60
2019-03-15T14:57:53.291Z,57.70
2019-03-15T15:00:22.662Z,57.90
2019-03-15T15:02:52.037Z,58.00
2019-03-15T15:05:21.760Z,57.70
2019-03-15T15:07:51.223Z,57.70
2019-03-15T15:10:20.594Z,58.00
2019-03-15T15:12:50.014Z,58.10
2019-03-15T15:15:20.464Z,57.70
2019-03-15T15:17:49.848Z,57.90
2019-03-15T15:20:19.250Z,58.00
2019-03-15T15:22:48.719Z,58.30
2019-03-15T15:25:18.608Z,58.50
2019-03-15T15:28:05.188Z,58.70
2019-03-15T15:30:34.610Z,59.40
2019-03-15T15:33:04.085Z,58.80
2019-03-15T15:35:33.660Z,58.60
2019-03-15T15:38:03.038Z,58.50
2019-03-15T15:40:32.428Z,58.20
2019-03-15T15:43:02.166Z,58.60
2019-03-15T15:45:31.558Z,59.00
2019-03-15T15:48:01.100Z,58.30
2019-03-15T15:50:30.538Z,58.10
2019-03-15T15:52:59.943Z,58.70
2019-03-15T15:55:29.344Z,58.40
2019-03-15T15:57:58.808Z,58.10
2019-03-15T16:00:28.266Z,58.10
2019-03-15T16:02:57.670Z,58.10
2019-03-15T16:05:27.058Z,58.50
2019-03-15T16:07:56.831Z,58.20
2019-03-15T16:10:26.331Z,58.00
2019-03-15T16:12:55.732Z,57.90
2019-03-15T16:15:26.115Z,57.70
2019-03-15T16:17:56.890Z,58.50
2019-03-15T16:20:26.344Z,57.90
2019-03-15T16:22:56.368Z,57.80
2019-03-15T16:25:25.744Z,57.70
2019-03-15T16:27:55.804Z,57.80
2019-03-15T16:30:25.469Z,58.00
2019-03-15T16:32:54.875Z,58.50
2019-03-15T16:35:24.280Z,58.70
2019-03-15T16:37:53.803Z,58.80
2019-03-15T16:40:23.323Z,58.80
2019-03-15T16:42:52.703Z,58.80
2019-03-15T16:45:27.154Z,58.40
2019-03-15T16:47:56.535Z,58.40
2019-03-15T16:50:26.020Z,58.20
2019-03-15T16:52:55.491Z,58.50
2019-03-15T16:55:24.923Z,58.50
2019-03-15T16:57:54.324Z,58.40
2019-03-15T17:00:23.877Z,58.10
2019-03-15T17:02:53.443Z,58.30
2019-03-15T17:05:22.920Z,58.80
2019-03-15T17:07:52.324Z,58.20
2019-03-15T17:10:21.699Z,58.20
2019-03-15T17:12:51.102Z,58.10
2019-03-15T17:15:30.060Z,58.60
2019-03-15T17:17:59.775Z,58.70
2019-03-15T17:20:29.232Z,58.90
2019-03-15T17:22:58.632Z,59.00
2019-03-15T17:25:28.035Z,58.90
2019-03-15T17:27:57.437Z,58.90
2019-03-15T17:30:27.213Z,59.10
2019-03-15T17:32:56.629Z,59.10
2019-03-15T17:35:26.111Z,58.80
2019-03-15T17:37:55.508Z,59.10
2019-03-15T17:40:24.916Z,58.90
2019-03-15T17:42:54.383Z,59.20
2019-03-15T17:45:23.838Z,59.10
2019-03-15T17:47:53.447Z,59.10
2019-03-15T17:50:24.323Z,59.20
2019-03-15T17:52:53.898Z,59.20
2019-03-15T17:55:23.353Z,59.30
2019-03-15T17:57:52.940Z,59.60
2019-03-15T18:00:38.523Z,59.80
2019-03-15T18:03:20.187Z,60.00
2019-03-15T18:05:59.180Z,59.90
2019-03-15T18:08:28.714Z,59.70
2019-03-15T18:10:58.195Z,59.20
2019-03-15T18:13:27.589Z,59.40
2019-03-15T18:15:56.974Z,59.40
2019-03-15T18:18:26.452Z,59.20
2019-03-15T18:20:55.834Z,59.00
2019-03-15T18:23:25.508Z,58.70
2019-03-15T18:25:55.978Z,58.80
2019-03-15T18:28:25.379Z,59.30
2019-03-15T18:30:54.860Z,59.60
2019-03-15T18:33:24.290Z,59.60
2019-03-15T18:35:53.805Z,59.50
2019-03-15T18:38:24.623Z,59.20
2019-03-15T18:40:54.058Z,59.30
2019-03-15T18:43:23.444Z,59.30
2019-03-15T18:45:53.037Z,59.30
2019-03-15T18:48:22.597Z,60.20
2019-03-15T18:50:51.996Z,59.30
2019-03-15T18:53:21.378Z,59.40
2019-03-15T18:55:50.825Z,59.70
2019-03-15T18:58:20.283Z,60.00
2019-03-15T19:00:49.754Z,60.20
2019-03-15T19:03:19.464Z,60.20
2019-03-15T19:05:49.011Z,60.50
2019-03-15T19:08:18.466Z,59.80
2019-03-15T19:10:47.846Z,59.80
2019-03-15T19:13:17.389Z,59.70
2019-03-15T19:15:46.903Z,60.10
2019-03-15T19:18:16.312Z,60.00
2019-03-15T19:20:45.821Z,59.70
2019-03-15T19:23:15.368Z,59.70
2019-03-15T19:25:45.818Z,59.70
2019-03-15T19:28:15.199Z,59.90
2019-03-15T19:30:44.676Z,60.30
2019-03-15T19:33:15.023Z,60.20
2019-03-15T19:35:44.408Z,60.30
2019-03-15T19:38:14.973Z,60.10
2019-03-15T19:40:44.475Z,60.50
2019-03-15T19:43:13.858Z,60.00
2019-03-15T19:45:43.251Z,59.70
2019-03-15T19:48:12.674Z,59.80
2019-03-15T19:50:42.115Z,59.70
2019-03-15T19:53:11.575Z,59.80
2019-03-15T19:55:41.067Z,60.00
2019-03-15T19:58:10.555Z,60.20
2019-03-15T20:00:40.123Z,60.20
2019-03-15T20:03:09.625Z,59.90
2019-03-15T20:05:39.011Z,59.80
2019-03-15T20:08:08.475Z,60.10
2019-03-15T20:10:37.872Z,60.20
2019-03-15T20:13:07.318Z,60.30
2019-03-15T20:15:36.881Z,60.10
2019-03-15T20:18:06.324Z,60.00
2019-03-15T20:20:35.711Z,60.20
2019-03-15T20:23:05.095Z,60.50
2019-03-15T20:25:34.490Z,60.00
2019-03-15T20:28:04.384Z,60.00
2019-03-15T20:30:34.203Z,60.00
2019-03-15T20:33:03.651Z,60.70
2019-03-15T20:35:33.048Z,59.70
2019-03-15T20:38:17.401Z,59.90
2019-03-15T20:40:46.810Z,59.50
2019-03-15T20:43:16.180Z,59.60
2019-03-15T20:45:45.640Z,59.70
2019-03-15T20:48:15.115Z,59.70
2019-03-15T20:50:47.115Z,60.30
2019-03-15T20:53:15.623Z,59.60
2019-03-15T20:55:45.132Z,59.60
2019-03-15T20:58:14.747Z,59.60
2019-03-15T21:00:45.204Z,59.70
2019-03-15T21:03:14.607Z,59.70
2019-03-15T21:05:43.987Z,59.90
2019-03-15T21:08:13.364Z,60.10
2019-03-15T21:11:02.176Z,59.90
2019-03-15T21:13:33.886Z,59.90
2019-03-15T21:16:04.639Z,60.20
2019-03-15T21:18:34.030Z,60.10
2019-03-15T21:21:03.492Z,60.30
2019-03-15T21:23:32.883Z,60.10
2019-03-15T21:26:02.279Z,60.00
2019-03-15T21:28:31.677Z,59.90
2019-03-15T21:31:01.166Z,60.20
2019-03-15T21:33:30.783Z,59.90
2019-03-15T21:36:00.192Z,60.00
2019-03-15T21:38:29.747Z,60.10
2019-03-15T21:40:59.165Z,60.10
2019-03-15T21:43:28.543Z,60.10
2019-03-15T21:45:57.947Z,60.20
2019-03-15T21:48:27.338Z,59.70
2019-03-15T21:50:56.799Z,59.70
2019-03-15T21:53:26.198Z,59.50
2019-03-15T21:55:55.647Z,59.40
2019-03-15T21:58:25.044Z,59.50
2019-03-15T22:01:02.361Z,59.70
2019-03-15T22:03:25.620Z,60.00
2019-03-15T22:05:55.078Z,59.70
2019-03-15T22:08:24.596Z,59.80
2019-03-15T22:10:54.050Z,59.80
2019-03-15T22:13:23.463Z,59.70
2019-03-15T22:15:53.035Z,59.40
2019-03-15T22:18:22.427Z,60.00
2019-03-15T22:20:51.895Z,61.10
2019-03-15T22:23:21.288Z,61.30
2019-03-15T22:25:50.699Z,61.20
2019-03-15T22:28:20.159Z,60.90
2019-03-15T22:30:49.551Z,61.20
2019-03-15T22:33:18.930Z,60.80
2019-03-15T22:35:48.323Z,60.40
2019-03-15T22:38:26.322Z,60.60
2019-03-15T22:40:48.803Z,61.30
2019-03-15T22:43:18.199Z,61.70
2019-03-15T22:45:47.577Z,61.60
2019-03-15T22:48:16.951Z,61.40
2019-03-15T22:50:46.406Z,60.80
2019-03-15T22:53:15.779Z,61.20
2019-03-15T22:55:45.164Z,61.10
2019-03-15T22:58:14.555Z,61.50
2019-03-15T23:00:45.131Z,61.70
2019-03-15T23:03:14.680Z,61.60
2019-03-15T23:05:44.068Z,61.70
2019-03-15T23:08:13.555Z,61.50
2019-03-15T23:10:42.929Z,61.40
2019-03-15T23:13:12.320Z,61.80
2019-03-15T23:15:41.692Z,62.00
2019-03-15T23:18:11.078Z,62.70
2019-03-15T23:20:40.444Z,62.10
2019-03-15T23:23:22.921Z,62.10
2019-03-15T23:25:41.048Z,61.80
2019-03-15T23:28:11.657Z,62.10
2019-03-15T23:30:41.112Z,62.20
2019-03-15T23:33:11.731Z,62.30
2019-03-15T23:35:53.552Z,61.90
2019-03-15T23:38:12.196Z,62.10
2019-03-15T23:40:41.575Z,62.20
2019-03-15T23:43:10.951Z,62.20
2019-03-15T23:45:40.335Z,62.30
2019-03-15T23:48:09.726Z,61.90
2019-03-15T23:50:39.093Z,62.20
2019-03-15T23:53:08.484Z,62.30
2019-03-15T23:55:37.873Z,62.20
2019-03-15T23:58:07.329Z,62.40
